WSSL/XSP METAR and TAF weather

Enter ICAO airport designator
Station Type Date Time Source
WSSL METAR 2021/07/26 16:00 UTC NOAA

WSSL 261600Z 18005KT 9999 FEW018 BKN300 28/25 Q1010


Station Type Date Time Source
WSSL Decoded METAR 2021/07/26 16:00 UTC NOAA

Station name not available
Jul 26, 2021 - 12:00 PM EDT / 2021.07.26 1600 UTC
Wind: from the S (180 degrees) at 6 MPH (5 KT):0
Visibility: greater than 7 mile(s):0
Sky conditions: mostly cloudy
Temperature: 82 F (28 C)
Dew Point: 77 F (25 C)
Relative Humidity: 83%
Pressure (altimeter): 29.83 in. Hg (1010 hPa)
ob: WSSL 261600Z 18005KT 9999 FEW018 BKN300 28/25 Q1010
cycle: 16

Station Type Date Time Source
WSSL TAF 2021/07/26 12:12 UTC NOAA

TAF WSSL 261100Z 2612/2718 15010KT 9999 FEW015

Example: see airport list